»·PEaware :: N5339M KFAT-KTVL

N5339M :: KFAT-KTVL

FLIGHT INFORMATION

Flight Status: Arrived
Operator: Privately registered:
United States
More flights under this callsign
Pilot: Russell M. (23594)
Aircraft: CESSNA 172 SKYHAWK
(C172)
More flights by this aircraft type
Origin: KFAT Fresno Yosemite Intl
United States
Destination: KTVL Lake Tahoe
United States
More flights between these airports :: More routes between these airports
Route: +
File this flight plan on PilotEdge
Remarks:
Altitude:
(Current/Filed)
0ft
Speed:
(Current/Filed)
0kts
Departed: 28-Mar-20 07:44 PM
Arrived: 28-Mar-20 08:56 PM
Distance/Time
Traveled:
128nm/1:12
Distance/Time
To Go:
Arrived

Flight Plot

Page will automatically refresh every two minutes.

Flight plan parsing failed; only flown route is shown


Map Options




Map Legend


Flown Route
Filed Route
Departure Airport
Arrival Airport
Navaid (VOR, NDB)
Fix

Horizontal Profiles

Position Reports

Time Latitude Longitude Heading Altitude Ground
Speed
28-Mar-20 19:30 36.776463 -119.726328 306 332ft 0kts
28-Mar-20 19:31 36.776463 -119.726328 306 332ft 0kts
28-Mar-20 19:32 36.776463 -119.726328 306 332ft 0kts
28-Mar-20 19:33 36.776463 -119.726328 306 332ft 0kts
28-Mar-20 19:34 36.776463 -119.726328 306 332ft 0kts
28-Mar-20 19:35 36.776463 -119.726328 306 332ft 0kts
28-Mar-20 19:36 36.776463 -119.726328 306 332ft 0kts
28-Mar-20 19:37 36.777614 -119.725902 49 332ft 9kts
28-Mar-20 19:38 36.775906 -119.722409 124 332ft 20kts
28-Mar-20 19:39 36.772760 -119.716893 125 331ft 18kts
28-Mar-20 19:40 36.769801 -119.711619 103 329ft 11kts
28-Mar-20 19:41 36.769926 -119.711099 36 330ft 0kts
28-Mar-20 19:42 36.769926 -119.711099 37 330ft 0kts
28-Mar-20 19:43 36.771924 -119.712916 306 331ft 51kts
28-Mar-20 19:44 36.782635 -119.736479 298 1073ft 81kts
28-Mar-20 19:45 36.795746 -119.753688 17 1901ft 82kts
28-Mar-20 19:46 36.817206 -119.744199 10 2613ft 86kts
28-Mar-20 19:47 36.841413 -119.739050 357 3214ft 89kts
28-Mar-20 19:48 36.867564 -119.739911 354 3824ft 99kts
28-Mar-20 19:49 36.895747 -119.742059 352 4426ft 103kts
28-Mar-20 19:50 36.924527 -119.745151 351 5025ft 103kts
28-Mar-20 19:51 36.952836 -119.748620 350 5620ft 101kts
28-Mar-20 19:52 36.980506 -119.752224 349 6212ft 99kts
28-Mar-20 19:53 37.007756 -119.755865 348 6802ft 97kts
28-Mar-20 19:54 37.034448 -119.759512 348 7321ft 99kts
28-Mar-20 19:55 37.063235 -119.762915 349 7726ft 107kts
28-Mar-20 19:56 37.093530 -119.766444 349 8129ft 111kts
28-Mar-20 19:57 37.124443 -119.770268 349 8527ft 112kts
28-Mar-20 19:58 37.155803 -119.774286 348 8925ft 111kts
28-Mar-20 19:59 37.186365 -119.778319 348 9284ft 110kts
28-Mar-20 20:00 37.206987 -119.780935 349 9482ft 112kts
28-Mar-20 20:01 37.238384 -119.784777 349 9777ft 115kts
28-Mar-20 20:02 37.270438 -119.788684 350 10046ft 118kts
28-Mar-20 20:03 37.303316 -119.792635 350 10325ft 118kts
28-Mar-20 20:04 37.336664 -119.796709 351 10501ft 126kts
28-Mar-20 20:05 37.371810 -119.800721 351 10501ft 125kts
28-Mar-20 20:06 37.406309 -119.805055 350 10502ft 124kts
28-Mar-20 20:07 37.440796 -119.809405 350 10502ft 124kts
28-Mar-20 20:08 37.475183 -119.813733 350 10502ft 124kts
28-Mar-20 20:09 37.505953 -119.817603 350 10502ft 124kts
28-Mar-20 20:10 37.538756 -119.821730 350 10502ft 124kts
28-Mar-20 20:11 37.573292 -119.826080 350 10502ft 124kts
28-Mar-20 20:12 37.604478 -119.830011 350 10503ft 124kts
28-Mar-20 20:13 37.638933 -119.834357 350 10503ft 124kts
28-Mar-20 20:14 37.673499 -119.838721 350 10503ft 124kts
28-Mar-20 20:15 37.707994 -119.843082 350 10503ft 124kts
28-Mar-20 20:16 37.742529 -119.847452 350 10503ft 124kts
28-Mar-20 20:17 37.777093 -119.851829 350 10503ft 124kts
28-Mar-20 20:18 37.811558 -119.856197 350 10503ft 125kts
28-Mar-20 20:19 37.846136 -119.860584 350 10503ft 125kts
28-Mar-20 20:20 37.880708 -119.864974 350 10503ft 125kts
28-Mar-20 20:21 37.915237 -119.869363 350 10503ft 125kts
28-Mar-20 20:22 37.949901 -119.873774 350 10503ft 125kts
28-Mar-20 20:23 37.984527 -119.878183 350 10503ft 125kts
28-Mar-20 20:24 38.019139 -119.882596 350 10503ft 125kts
28-Mar-20 20:25 38.053740 -119.887011 350 10504ft 125kts
28-Mar-20 20:26 38.088471 -119.891447 350 10504ft 125kts
28-Mar-20 20:27 38.122997 -119.895868 350 10501ft 124kts
28-Mar-20 20:28 38.157386 -119.900297 350 10501ft 124kts
28-Mar-20 20:29 38.191899 -119.904732 350 10502ft 124kts
28-Mar-20 20:30 38.226321 -119.909149 350 10502ft 124kts
28-Mar-20 20:31 38.260838 -119.913580 350 10502ft 124kts
28-Mar-20 20:33 38.295215 -119.917995 350 10502ft 124kts
28-Mar-20 20:34 38.329674 -119.922425 350 10502ft 124kts
28-Mar-20 20:35 38.363818 -119.926890 349 10578ft 118kts
28-Mar-20 20:36 38.396217 -119.931468 350 10774ft 120kts
28-Mar-20 20:37 38.430751 -119.935430 351 10808ft 126kts
28-Mar-20 20:38 38.465522 -119.939794 351 10804ft 125kts
28-Mar-20 20:39 38.500157 -119.944290 351 10804ft 125kts
28-Mar-20 20:40 38.534577 -119.948748 351 10804ft 125kts
28-Mar-20 20:41 38.569217 -119.953234 351 10804ft 125kts
28-Mar-20 20:42 38.603830 -119.956813 359 10804ft 125kts
28-Mar-20 20:43 38.638455 -119.949634 8 10804ft 126kts
28-Mar-20 20:44 38.672963 -119.941224 9 10804ft 126kts
28-Mar-20 20:45 38.707495 -119.933389 357 10805ft 125kts
28-Mar-20 20:46 38.741387 -119.941624 342 10804ft 124kts
28-Mar-20 20:47 38.774792 -119.951763 342 10627ft 121kts
28-Mar-20 20:48 38.807949 -119.961751 342 10432ft 120kts
28-Mar-20 20:49 38.839429 -119.971233 341 10404ft 110kts
28-Mar-20 20:49 38.863640 -119.974108 19 9924ft 104kts
28-Mar-20 20:51 38.896541 -119.960157 14 8922ft 107kts
28-Mar-20 20:52 38.924257 -119.951725 8 8163ft 101kts
28-Mar-20 20:52 38.940520 -119.961080 283 7581ft 84kts
28-Mar-20 20:54 38.932339 -119.983875 196 6932ft 86kts
28-Mar-20 20:55 38.910178 -119.990536 197 6433ft 78kts
28-Mar-20 20:55 38.895710 -119.994771 189 6265ft 33kts
28-Mar-20 20:56 38.892417 -119.997282 279 6268ft 9kts
28-Mar-20 20:58 38.892779 -119.998007 27 6270ft 0kts

Navigation Log

Ident Type
Flight plan parsing failed, navigation log unavailable